sensor_id;sensor_type;location;lat;lon;timestamp;P1;durP1;ratioP1;P2;durP2;ratioP2
11100;SDS011;5604;50.722;7.078;2023-04-02T00:00:15;1.87;;;1.40;;
11100;SDS011;5604;50.722;7.078;2023-04-02T00:02:57;2.33;;;1.43;;
11100;SDS011;5604;50.722;7.078;2023-04-02T00:05:31;2.10;;;1.70;;
11100;SDS011;5604;50.722;7.078;2023-04-02T00:08:18;2.47;;;1.77;;
11100;SDS011;5604;50.722;7.078;2023-04-02T00:10:49;3.17;;;1.80;;
11100;SDS011;5604;50.722;7.078;2023-04-02T00:13:28;2.33;;;1.50;;
11100;SDS011;5604;50.722;7.078;2023-04-02T00:16:05;2.03;;;1.80;;
11100;SDS011;5604;50.722;7.078;2023-04-02T00:18:39;3.30;;;1.40;;
11100;SDS011;5604;50.722;7.078;2023-04-02T00:21:18;1.80;;;1.37;;
11100;SDS011;5604;50.722;7.078;2023-04-02T00:23:48;2.27;;;1.70;;
11100;SDS011;5604;50.722;7.078;2023-04-02T00:26:20;3.00;;;2.20;;
11100;SDS011;5604;50.722;7.078;2023-04-02T00:28:49;2.90;;;2.50;;
11100;SDS011;5604;50.722;7.078;2023-04-02T00:31:18;2.57;;;2.27;;
11100;SDS011;5604;50.722;7.078;2023-04-02T00:33:53;3.43;;;3.13;;
11100;SDS011;5604;50.722;7.078;2023-04-02T00:36:24;3.63;;;2.30;;
11100;SDS011;5604;50.722;7.078;2023-04-02T00:38:56;2.30;;;2.10;;
11100;SDS011;5604;50.722;7.078;2023-04-02T00:41:30;2.13;;;2.03;;
11100;SDS011;5604;50.722;7.078;2023-04-02T00:44:02;2.93;;;2.13;;
11100;SDS011;5604;50.722;7.078;2023-04-02T00:46:40;2.30;;;2.20;;
11100;SDS011;5604;50.722;7.078;2023-04-02T00:49:16;2.50;;;1.93;;
11100;SDS011;5604;50.722;7.078;2023-04-02T00:51:48;2.10;;;1.90;;
11100;SDS011;5604;50.722;7.078;2023-04-02T00:54:19;2.13;;;1.93;;
11100;SDS011;5604;50.722;7.078;2023-04-02T00:56:49;2.40;;;2.20;;
11100;SDS011;5604;50.722;7.078;2023-04-02T00:59:21;2.93;;;2.37;;
11100;SDS011;5604;50.722;7.078;2023-04-02T01:01:53;2.70;;;2.30;;
11100;SDS011;5604;50.722;7.078;2023-04-02T01:04:32;2.20;;;2.00;;
11100;SDS011;5604;50.722;7.078;2023-04-02T01:07:03;3.17;;;2.87;;
11100;SDS011;5604;50.722;7.078;2023-04-02T01:09:37;4.20;;;3.80;;
11100;SDS011;5604;50.722;7.078;2023-04-02T01:15:06;3.83;;;3.53;;
11100;SDS011;5604;50.722;7.078;2023-04-02T01:17:48;4.10;;;3.60;;
11100;SDS011;5604;50.722;7.078;2023-04-02T01:20:40;4.27;;;3.97;;
11100;SDS011;5604;50.722;7.078;2023-04-02T01:23:16;4.10;;;3.80;;
11100;SDS011;5604;50.722;7.078;2023-04-02T01:25:49;5.07;;;4.03;;
11100;SDS011;5604;50.722;7.078;2023-04-02T01:28:26;4.90;;;3.97;;
11100;SDS011;5604;50.722;7.078;2023-04-02T01:30:57;4.30;;;4.00;;
11100;SDS011;5604;50.722;7.078;2023-04-02T01:33:28;3.93;;;3.63;;
11100;SDS011;5604;50.722;7.078;2023-04-02T01:35:59;4.57;;;3.10;;
11100;SDS011;5604;50.722;7.078;2023-04-02T01:38:33;2.77;;;2.57;;
11100;SDS011;5604;50.722;7.078;2023-04-02T01:41:06;4.60;;;2.90;;
11100;SDS011;5604;50.722;7.078;2023-04-02T01:43:40;3.00;;;2.80;;
11100;SDS011;5604;50.722;7.078;2023-04-02T01:46:25;3.30;;;3.10;;
11100;SDS011;5604;50.722;7.078;2023-04-02T01:48:53;3.40;;;3.20;;
11100;SDS011;5604;50.722;7.078;2023-04-02T01:51:26;3.93;;;3.60;;
11100;SDS011;5604;50.722;7.078;2023-04-02T01:53:57;4.43;;;3.90;;
11100;SDS011;5604;50.722;7.078;2023-04-02T01:56:27;4.00;;;3.70;;
11100;SDS011;5604;50.722;7.078;2023-04-02T01:58:56;4.70;;;4.30;;
11100;SDS011;5604;50.722;7.078;2023-04-02T02:01:29;4.80;;;4.40;;
11100;SDS011;5604;50.722;7.078;2023-04-02T02:04:00;4.80;;;4.40;;
11100;SDS011;5604;50.722;7.078;2023-04-02T02:06:30;6.00;;;4.87;;
11100;SDS011;5604;50.722;7.078;2023-04-02T02:08:59;5.97;;;5.37;;
11100;SDS011;5604;50.722;7.078;2023-04-02T02:11:31;4.97;;;4.57;;
11100;SDS011;5604;50.722;7.078;2023-04-02T02:14:04;5.27;;;4.83;;
11100;SDS011;5604;50.722;7.078;2023-04-02T02:16:40;5.43;;;4.90;;
11100;SDS011;5604;50.722;7.078;2023-04-02T02:19:17;5.90;;;4.93;;
11100;SDS011;5604;50.722;7.078;2023-04-02T02:21:49;4.70;;;3.70;;
11100;SDS011;5604;50.722;7.078;2023-04-02T02:24:18;4.43;;;4.03;;
11100;SDS011;5604;50.722;7.078;2023-04-02T02:26:50;4.77;;;3.83;;
11100;SDS011;5604;50.722;7.078;2023-04-02T02:29:27;4.50;;;4.20;;
11100;SDS011;5604;50.722;7.078;2023-04-02T02:31:57;4.20;;;3.87;;
11100;SDS011;5604;50.722;7.078;2023-04-02T02:34:28;4.53;;;4.23;;
11100;SDS011;5604;50.722;7.078;2023-04-02T02:36:59;4.77;;;4.37;;
11100;SDS011;5604;50.722;7.078;2023-04-02T02:39:33;5.17;;;4.77;;
11100;SDS011;5604;50.722;7.078;2023-04-02T02:42:07;5.03;;;4.63;;
11100;SDS011;5604;50.722;7.078;2023-04-02T02:44:40;4.97;;;4.53;;
11100;SDS011;5604;50.722;7.078;2023-04-02T02:47:12;4.67;;;4.33;;
11100;SDS011;5604;50.722;7.078;2023-04-02T02:49:42;4.87;;;4.47;;
11100;SDS011;5604;50.722;7.078;2023-04-02T02:52:13;5.97;;;5.47;;
11100;SDS011;5604;50.722;7.078;2023-04-02T02:55:01;8.07;;;7.30;;
11100;SDS011;5604;50.722;7.078;2023-04-02T02:57:49;10.47;;;9.57;;
11100;SDS011;5604;50.722;7.078;2023-04-02T03:00:20;12.67;;;11.47;;
11100;SDS011;5604;50.722;7.078;2023-04-02T03:02:52;14.80;;;13.30;;
11100;SDS011;5604;50.722;7.078;2023-04-02T03:05:24;14.23;;;12.90;;
11100;SDS011;5604;50.722;7.078;2023-04-02T03:07:57;13.77;;;10.77;;
11100;SDS011;5604;50.722;7.078;2023-04-02T03:10:33;9.10;;;8.30;;
11100;SDS011;5604;50.722;7.078;2023-04-02T03:13:07;7.10;;;6.40;;
11100;SDS011;5604;50.722;7.078;2023-04-02T03:15:45;7.43;;;6.73;;
11100;SDS011;5604;50.722;7.078;2023-04-02T03:18:19;7.70;;;6.90;;
11100;SDS011;5604;50.722;7.078;2023-04-02T03:20:54;7.87;;;7.17;;
11100;SDS011;5604;50.722;7.078;2023-04-02T03:23:28;10.33;;;7.30;;
11100;SDS011;5604;50.722;7.078;2023-04-02T03:26:00;8.37;;;7.50;;
11100;SDS011;5604;50.722;7.078;2023-04-02T03:28:32;8.60;;;7.80;;
11100;SDS011;5604;50.722;7.078;2023-04-02T03:31:14;8.40;;;7.70;;
11100;SDS011;5604;50.722;7.078;2023-04-02T03:33:47;7.47;;;6.77;;
11100;SDS011;5604;50.722;7.078;2023-04-02T03:36:18;9.70;;;7.63;;
11100;SDS011;5604;50.722;7.078;2023-04-02T03:38:52;6.10;;;5.50;;
11100;SDS011;5604;50.722;7.078;2023-04-02T03:41:28;6.10;;;4.97;;
11100;SDS011;5604;50.722;7.078;2023-04-02T03:44:00;4.77;;;4.37;;
11100;SDS011;5604;50.722;7.078;2023-04-02T03:46:34;4.40;;;4.00;;
11100;SDS011;5604;50.722;7.078;2023-04-02T03:49:10;4.20;;;3.70;;
11100;SDS011;5604;50.722;7.078;2023-04-02T03:51:42;4.10;;;3.80;;
11100;SDS011;5604;50.722;7.078;2023-04-02T03:54:16;3.97;;;3.67;;
11100;SDS011;5604;50.722;7.078;2023-04-02T03:56:46;4.17;;;3.87;;
11100;SDS011;5604;50.722;7.078;2023-04-02T03:59:24;5.00;;;3.60;;
11100;SDS011;5604;50.722;7.078;2023-04-02T04:01:58;4.27;;;3.97;;
11100;SDS011;5604;50.722;7.078;2023-04-02T04:04:30;4.33;;;4.03;;
11100;SDS011;5604;50.722;7.078;2023-04-02T04:07:17;5.37;;;4.47;;
11100;SDS011;5604;50.722;7.078;2023-04-02T04:09:49;5.67;;;5.17;;
11100;SDS011;5604;50.722;7.078;2023-04-02T04:12:25;6.63;;;5.47;;
11100;SDS011;5604;50.722;7.078;2023-04-02T04:14:59;6.97;;;6.33;;
11100;SDS011;5604;50.722;7.078;2023-04-02T04:17:31;6.90;;;6.17;;
11100;SDS011;5604;50.722;7.078;2023-04-02T04:20:10;7.80;;;7.03;;
11100;SDS011;5604;50.722;7.078;2023-04-02T04:22:45;7.80;;;7.10;;
11100;SDS011;5604;50.722;7.078;2023-04-02T04:25:21;6.77;;;6.17;;
11100;SDS011;5604;50.722;7.078;2023-04-02T04:28:01;7.57;;;6.87;;
11100;SDS011;5604;50.722;7.078;2023-04-02T04:30:38;7.07;;;5.90;;
11100;SDS011;5604;50.722;7.078;2023-04-02T04:33:15;6.70;;;6.10;;
11100;SDS011;5604;50.722;7.078;2023-04-02T04:35:52;7.17;;;6.50;;
11100;SDS011;5604;50.722;7.078;2023-04-02T04:38:30;7.17;;;6.47;;
11100;SDS011;5604;50.722;7.078;2023-04-02T04:41:02;6.97;;;6.37;;
11100;SDS011;5604;50.722;7.078;2023-04-02T04:43:41;6.43;;;5.83;;
11100;SDS011;5604;50.722;7.078;2023-04-02T04:46:12;7.27;;;6.63;;
11100;SDS011;5604;50.722;7.078;2023-04-02T04:48:45;7.27;;;6.57;;
11100;SDS011;5604;50.722;7.078;2023-04-02T04:51:21;6.73;;;6.13;;
11100;SDS011;5604;50.722;7.078;2023-04-02T04:53:53;7.67;;;6.97;;
11100;SDS011;5604;50.722;7.078;2023-04-02T04:56:28;8.47;;;7.67;;
11100;SDS011;5604;50.722;7.078;2023-04-02T04:59:11;8.80;;;7.63;;
11100;SDS011;5604;50.722;7.078;2023-04-02T05:01:44;9.03;;;8.07;;
11100;SDS011;5604;50.722;7.078;2023-04-02T05:04:18;7.80;;;7.10;;
11100;SDS011;5604;50.722;7.078;2023-04-02T05:06:51;8.87;;;7.53;;
11100;SDS011;5604;50.722;7.078;2023-04-02T05:09:23;8.87;;;7.97;;
11100;SDS011;5604;50.722;7.078;2023-04-02T05:12:00;8.60;;;7.90;;
11100;SDS011;5604;50.722;7.078;2023-04-02T05:14:34;8.90;;;8.00;;
11100;SDS011;5604;50.722;7.078;2023-04-02T05:17:09;10.47;;;8.80;;
11100;SDS011;5604;50.722;7.078;2023-04-02T05:19:43;9.07;;;8.20;;
11100;SDS011;5604;50.722;7.078;2023-04-02T05:22:15;9.47;;;8.57;;
11100;SDS011;5604;50.722;7.078;2023-04-02T05:24:54;9.53;;;8.63;;
11100;SDS011;5604;50.722;7.078;2023-04-02T05:27:28;9.17;;;8.33;;
11100;SDS011;5604;50.722;7.078;2023-04-02T05:30:05;10.00;;;8.60;;
11100;SDS011;5604;50.722;7.078;2023-04-02T05:32:39;9.53;;;8.60;;
11100;SDS011;5604;50.722;7.078;2023-04-02T05:35:13;9.77;;;8.77;;
11100;SDS011;5604;50.722;7.078;2023-04-02T05:37:49;9.13;;;8.23;;
11100;SDS011;5604;50.722;7.078;2023-04-02T05:40:18;9.93;;;8.93;;
11100;SDS011;5604;50.722;7.078;2023-04-02T05:42:50;9.87;;;9.00;;
11100;SDS011;5604;50.722;7.078;2023-04-02T05:45:23;10.23;;;9.23;;
11100;SDS011;5604;50.722;7.078;2023-04-02T05:47:58;9.60;;;8.60;;
11100;SDS011;5604;50.722;7.078;2023-04-02T05:50:35;9.70;;;8.80;;
11100;SDS011;5604;50.722;7.078;2023-04-02T05:53:16;9.53;;;8.63;;
11100;SDS011;5604;50.722;7.078;2023-04-02T05:55:55;15.23;;;13.63;;
11100;SDS011;5604;50.722;7.078;2023-04-02T05:58:31;10.53;;;9.50;;
11100;SDS011;5604;50.722;7.078;2023-04-02T06:01:23;10.37;;;9.37;;
11100;SDS011;5604;50.722;7.078;2023-04-02T06:04:15;9.37;;;8.47;;
11100;SDS011;5604;50.722;7.078;2023-04-02T06:06:48;9.43;;;8.37;;
11100;SDS011;5604;50.722;7.078;2023-04-02T06:09:26;9.20;;;8.30;;
11100;SDS011;5604;50.722;7.078;2023-04-02T06:12:09;9.17;;;8.30;;
11100;SDS011;5604;50.722;7.078;2023-04-02T06:14:44;9.60;;;8.70;;
11100;SDS011;5604;50.722;7.078;2023-04-02T06:17:17;8.27;;;7.57;;
11100;SDS011;5604;50.722;7.078;2023-04-02T06:19:46;8.03;;;7.20;;
11100;SDS011;5604;50.722;7.078;2023-04-02T06:22:19;8.70;;;7.90;;
11100;SDS011;5604;50.722;7.078;2023-04-02T06:24:59;8.50;;;7.80;;
11100;SDS011;5604;50.722;7.078;2023-04-02T06:27:35;7.97;;;7.17;;
11100;SDS011;5604;50.722;7.078;2023-04-02T06:30:13;8.43;;;7.60;;
11100;SDS011;5604;50.722;7.078;2023-04-02T06:32:46;8.10;;;7.40;;
11100;SDS011;5604;50.722;7.078;2023-04-02T06:35:24;7.83;;;7.13;;
11100;SDS011;5604;50.722;7.078;2023-04-02T06:37:58;7.77;;;7.03;;
11100;SDS011;5604;50.722;7.078;2023-04-02T06:40:40;7.33;;;6.67;;
11100;SDS011;5604;50.722;7.078;2023-04-02T06:43:26;7.57;;;6.87;;
11100;SDS011;5604;50.722;7.078;2023-04-02T06:46:20;7.87;;;6.30;;
11100;SDS011;5604;50.722;7.078;2023-04-02T06:48:58;7.57;;;6.90;;
11100;SDS011;5604;50.722;7.078;2023-04-02T06:51:36;7.47;;;6.77;;
11100;SDS011;5604;50.722;7.078;2023-04-02T06:54:11;7.30;;;6.47;;
11100;SDS011;5604;50.722;7.078;2023-04-02T06:56:49;11.53;;;7.63;;
11100;SDS011;5604;50.722;7.078;2023-04-02T06:59:31;6.73;;;6.07;;
11100;SDS011;5604;50.722;7.078;2023-04-02T07:02:03;7.03;;;6.37;;
11100;SDS011;5604;50.722;7.078;2023-04-02T07:04:32;7.27;;;6.57;;
11100;SDS011;5604;50.722;7.078;2023-04-02T07:07:02;6.87;;;6.27;;
11100;SDS011;5604;50.722;7.078;2023-04-02T07:09:36;6.63;;;6.03;;
11100;SDS011;5604;50.722;7.078;2023-04-02T07:12:11;6.40;;;5.80;;
11100;SDS011;5604;50.722;7.078;2023-04-02T07:14:42;6.77;;;6.07;;
11100;SDS011;5604;50.722;7.078;2023-04-02T07:17:14;6.70;;;6.10;;
11100;SDS011;5604;50.722;7.078;2023-04-02T07:19:48;6.67;;;6.07;;
11100;SDS011;5604;50.722;7.078;2023-04-02T07:22:23;6.67;;;5.93;;
11100;SDS011;5604;50.722;7.078;2023-04-02T07:24:56;7.27;;;6.67;;
11100;SDS011;5604;50.722;7.078;2023-04-02T07:27:25;8.70;;;7.40;;
11100;SDS011;5604;50.722;7.078;2023-04-02T07:29:59;7.93;;;7.23;;
11100;SDS011;5604;50.722;7.078;2023-04-02T07:32:30;8.40;;;7.60;;
11100;SDS011;5604;50.722;7.078;2023-04-02T07:34:58;9.33;;;8.43;;
11100;SDS011;5604;50.722;7.078;2023-04-02T07:37:26;8.13;;;7.43;;
11100;SDS011;5604;50.722;7.078;2023-04-02T07:39:57;9.30;;;8.40;;
11100;SDS011;5604;50.722;7.078;2023-04-02T07:42:34;9.37;;;8.47;;
11100;SDS011;5604;50.722;7.078;2023-04-02T07:45:06;10.03;;;8.27;;
11100;SDS011;5604;50.722;7.078;2023-04-02T07:47:40;10.13;;;9.10;;
11100;SDS011;5604;50.722;7.078;2023-04-02T07:50:11;9.63;;;8.70;;
11100;SDS011;5604;50.722;7.078;2023-04-02T07:52:40;10.13;;;8.87;;
11100;SDS011;5604;50.722;7.078;2023-04-02T07:55:12;10.63;;;9.53;;
11100;SDS011;5604;50.722;7.078;2023-04-02T07:57:47;9.27;;;8.47;;
11100;SDS011;5604;50.722;7.078;2023-04-02T08:00:20;9.47;;;8.67;;
11100;SDS011;5604;50.722;7.078;2023-04-02T08:02:49;9.23;;;8.33;;
11100;SDS011;5604;50.722;7.078;2023-04-02T08:05:23;9.43;;;8.53;;
11100;SDS011;5604;50.722;7.078;2023-04-02T08:07:56;8.83;;;8.13;;
11100;SDS011;5604;50.722;7.078;2023-04-02T08:10:25;9.57;;;8.33;;
11100;SDS011;5604;50.722;7.078;2023-04-02T08:12:57;10.40;;;8.73;;
11100;SDS011;5604;50.722;7.078;2023-04-02T08:15:28;9.40;;;8.50;;
11100;SDS011;5604;50.722;7.078;2023-04-02T08:17:56;9.27;;;8.33;;
11100;SDS011;5604;50.722;7.078;2023-04-02T08:20:29;8.80;;;8.00;;
11100;SDS011;5604;50.722;7.078;2023-04-02T08:23:00;8.87;;;8.07;;
11100;SDS011;5604;50.722;7.078;2023-04-02T08:25:28;9.03;;;8.13;;
11100;SDS011;5604;50.722;7.078;2023-04-02T08:28:04;9.17;;;8.37;;
11100;SDS011;5604;50.722;7.078;2023-04-02T08:30:35;8.67;;;7.97;;
11100;SDS011;5604;50.722;7.078;2023-04-02T08:33:09;7.47;;;6.87;;
11100;SDS011;5604;50.722;7.078;2023-04-02T08:35:38;7.40;;;6.80;;
11100;SDS011;5604;50.722;7.078;2023-04-02T08:38:06;6.90;;;6.30;;
11100;SDS011;5604;50.722;7.078;2023-04-02T08:40:37;6.30;;;5.80;;
11100;SDS011;5604;50.722;7.078;2023-04-02T08:43:22;6.47;;;5.97;;
11100;SDS011;5604;50.722;7.078;2023-04-02T08:46:00;7.27;;;6.27;;
11100;SDS011;5604;50.722;7.078;2023-04-02T08:48:32;7.60;;;6.90;;
11100;SDS011;5604;50.722;7.078;2023-04-02T08:51:01;7.00;;;6.43;;
11100;SDS011;5604;50.722;7.078;2023-04-02T08:53:36;7.63;;;6.93;;
11100;SDS011;5604;50.722;7.078;2023-04-02T08:56:06;6.77;;;6.17;;
11100;SDS011;5604;50.722;7.078;2023-04-02T08:58:45;7.43;;;6.73;;
11100;SDS011;5604;50.722;7.078;2023-04-02T09:01:22;7.60;;;6.97;;
11100;SDS011;5604;50.722;7.078;2023-04-02T09:04:02;6.93;;;6.33;;
11100;SDS011;5604;50.722;7.078;2023-04-02T09:06:40;6.80;;;6.20;;
11100;SDS011;5604;50.722;7.078;2023-04-02T09:09:18;7.50;;;6.77;;
11100;SDS011;5604;50.722;7.078;2023-04-02T09:11:51;6.83;;;6.23;;
11100;SDS011;5604;50.722;7.078;2023-04-02T09:14:25;6.33;;;5.73;;
11100;SDS011;5604;50.722;7.078;2023-04-02T09:17:01;6.37;;;5.40;;
11100;SDS011;5604;50.722;7.078;2023-04-02T09:19:35;5.67;;;5.13;;
11100;SDS011;5604;50.722;7.078;2023-04-02T09:22:07;5.73;;;5.23;;
11100;SDS011;5604;50.722;7.078;2023-04-02T09:24:38;6.07;;;5.47;;
11100;SDS011;5604;50.722;7.078;2023-04-02T09:27:14;5.87;;;5.37;;
11100;SDS011;5604;50.722;7.078;2023-04-02T09:29:52;5.30;;;4.80;;
11100;SDS011;5604;50.722;7.078;2023-04-02T09:32:30;5.67;;;5.17;;
11100;SDS011;5604;50.722;7.078;2023-04-02T09:35:07;7.33;;;6.00;;
11100;SDS011;5604;50.722;7.078;2023-04-02T09:38:14;6.57;;;5.93;;
11100;SDS011;5604;50.722;7.078;2023-04-02T09:40:45;5.87;;;5.30;;
11100;SDS011;5604;50.722;7.078;2023-04-02T09:43:16;5.93;;;5.43;;
11100;SDS011;5604;50.722;7.078;2023-04-02T09:45:55;6.17;;;5.53;;
11100;SDS011;5604;50.722;7.078;2023-04-02T09:48:31;6.17;;;5.67;;
11100;SDS011;5604;50.722;7.078;2023-04-02T09:51:05;6.90;;;6.10;;
11100;SDS011;5604;50.722;7.078;2023-04-02T09:53:37;5.73;;;5.23;;
11100;SDS011;5604;50.722;7.078;2023-04-02T09:56:09;7.23;;;6.27;;
11100;SDS011;5604;50.722;7.078;2023-04-02T09:58:39;7.53;;;6.83;;
11100;SDS011;5604;50.722;7.078;2023-04-02T10:01:13;8.67;;;7.73;;
11100;SDS011;5604;50.722;7.078;2023-04-02T10:03:59;8.90;;;8.00;;
11100;SDS011;5604;50.722;7.078;2023-04-02T10:06:29;8.93;;;8.00;;
11100;SDS011;5604;50.722;7.078;2023-04-02T10:08:58;8.43;;;7.63;;
11100;SDS011;5604;50.722;7.078;2023-04-02T10:11:55;7.80;;;7.10;;
11100;SDS011;5604;50.722;7.078;2023-04-02T10:14:24;8.60;;;7.80;;
11100;SDS011;5604;50.722;7.078;2023-04-02T10:17:00;8.33;;;7.43;;
11100;SDS011;5604;50.722;7.078;2023-04-02T10:19:37;8.77;;;7.87;;
11100;SDS011;5604;50.722;7.078;2023-04-02T10:22:11;8.33;;;7.57;;
11100;SDS011;5604;50.722;7.078;2023-04-02T10:24:41;8.90;;;8.00;;
11100;SDS011;5604;50.722;7.078;2023-04-02T10:27:20;7.23;;;6.53;;
11100;SDS011;5604;50.722;7.078;2023-04-02T10:30:04;8.63;;;7.73;;
11100;SDS011;5604;50.722;7.078;2023-04-02T10:32:38;7.57;;;6.87;;
11100;SDS011;5604;50.722;7.078;2023-04-02T10:35:13;8.07;;;7.30;;
11100;SDS011;5604;50.722;7.078;2023-04-02T10:38:01;7.37;;;6.67;;
11100;SDS011;5604;50.722;7.078;2023-04-02T10:40:47;7.60;;;6.90;;
11100;SDS011;5604;50.722;7.078;2023-04-02T10:43:25;8.13;;;7.43;;
11100;SDS011;5604;50.722;7.078;2023-04-02T10:46:01;7.30;;;6.60;;
11100;SDS011;5604;50.722;7.078;2023-04-02T10:48:39;8.13;;;7.27;;
11100;SDS011;5604;50.722;7.078;2023-04-02T10:51:12;7.70;;;6.90;;
11100;SDS011;5604;50.722;7.078;2023-04-02T10:53:48;7.23;;;6.60;;
11100;SDS011;5604;50.722;7.078;2023-04-02T10:56:25;7.33;;;6.73;;
11100;SDS011;5604;50.722;7.078;2023-04-02T10:59:04;7.90;;;7.03;;
11100;SDS011;5604;50.722;7.078;2023-04-02T11:01:39;6.87;;;6.27;;
11100;SDS011;5604;50.722;7.078;2023-04-02T11:04:15;6.97;;;6.33;;
11100;SDS011;5604;50.722;7.078;2023-04-02T11:06:46;7.37;;;6.77;;
11100;SDS011;5604;50.722;7.078;2023-04-02T11:09:19;8.20;;;6.40;;
11100;SDS011;5604;50.722;7.078;2023-04-02T11:11:49;7.83;;;5.80;;
11100;SDS011;5604;50.722;7.078;2023-04-02T11:14:19;6.30;;;5.70;;
11100;SDS011;5604;50.722;7.078;2023-04-02T11:16:55;6.40;;;5.80;;
11100;SDS011;5604;50.722;7.078;2023-04-02T11:19:28;6.43;;;5.50;;
11100;SDS011;5604;50.722;7.078;2023-04-02T11:21:58;6.63;;;5.93;;
11100;SDS011;5604;50.722;7.078;2023-04-02T11:24:35;6.03;;;5.53;;
11100;SDS011;5604;50.722;7.078;2023-04-02T11:27:16;6.63;;;6.03;;
11100;SDS011;5604;50.722;7.078;2023-04-02T11:29:48;6.23;;;5.63;;
11100;SDS011;5604;50.722;7.078;2023-04-02T11:32:27;6.70;;;5.87;;
11100;SDS011;5604;50.722;7.078;2023-04-02T11:44:31;5.87;;;5.27;;
11100;SDS011;5604;50.722;7.078;2023-04-02T11:47:18;6.13;;;5.53;;
11100;SDS011;5604;50.722;7.078;2023-04-02T11:49:56;5.43;;;4.93;;
11100;SDS011;5604;50.722;7.078;2023-04-02T11:52:32;6.43;;;5.83;;
11100;SDS011;5604;50.722;7.078;2023-04-02T11:58:05;6.40;;;5.13;;
11100;SDS011;5604;50.722;7.078;2023-04-02T12:00:56;4.97;;;4.57;;
11100;SDS011;5604;50.722;7.078;2023-04-02T12:03:47;4.53;;;4.07;;
11100;SDS011;5604;50.722;7.078;2023-04-02T12:06:25;4.33;;;3.97;;
11100;SDS011;5604;50.722;7.078;2023-04-02T12:08:59;6.87;;;4.17;;
11100;SDS011;5604;50.722;7.078;2023-04-02T12:11:31;4.67;;;4.03;;
11100;SDS011;5604;50.722;7.078;2023-04-02T12:14:00;6.20;;;5.50;;
11100;SDS011;5604;50.722;7.078;2023-04-02T12:16:32;6.80;;;6.17;;
11100;SDS011;5604;50.722;7.078;2023-04-02T12:19:00;6.20;;;5.60;;
11100;SDS011;5604;50.722;7.078;2023-04-02T12:21:28;6.80;;;6.10;;
11100;SDS011;5604;50.722;7.078;2023-04-02T12:24:01;6.30;;;5.70;;
11100;SDS011;5604;50.722;7.078;2023-04-02T12:26:32;6.10;;;5.50;;
11100;SDS011;5604;50.722;7.078;2023-04-02T12:29:21;6.03;;;5.43;;
11100;SDS011;5604;50.722;7.078;2023-04-02T12:31:50;6.80;;;5.40;;
11100;SDS011;5604;50.722;7.078;2023-04-02T12:34:20;5.93;;;5.43;;
11100;SDS011;5604;50.722;7.078;2023-04-02T12:36:52;5.80;;;5.10;;
11100;SDS011;5604;50.722;7.078;2023-04-02T12:39:24;6.27;;;5.67;;
11100;SDS011;5604;50.722;7.078;2023-04-02T12:41:55;5.80;;;5.30;;
11100;SDS011;5604;50.722;7.078;2023-04-02T12:44:25;5.83;;;5.33;;
11100;SDS011;5604;50.722;7.078;2023-04-02T12:46:55;5.43;;;5.03;;
11100;SDS011;5604;50.722;7.078;2023-04-02T12:49:29;5.67;;;5.07;;
11100;SDS011;5604;50.722;7.078;2023-04-02T12:52:07;5.00;;;4.60;;
11100;SDS011;5604;50.722;7.078;2023-04-02T12:54:43;5.20;;;4.80;;
11100;SDS011;5604;50.722;7.078;2023-04-02T12:57:19;4.70;;;4.30;;
11100;SDS011;5604;50.722;7.078;2023-04-02T12:59:59;4.80;;;4.40;;
11100;SDS011;5604;50.722;7.078;2023-04-02T13:02:42;4.60;;;4.20;;
11100;SDS011;5604;50.722;7.078;2023-04-02T13:05:12;4.23;;;3.83;;
11100;SDS011;5604;50.722;7.078;2023-04-02T13:08:05;4.50;;;4.10;;
11100;SDS011;5604;50.722;7.078;2023-04-02T13:10:42;5.00;;;4.20;;
11100;SDS011;5604;50.722;7.078;2023-04-02T13:13:14;5.10;;;4.23;;
11100;SDS011;5604;50.722;7.078;2023-04-02T13:15:58;4.63;;;4.17;;
11100;SDS011;5604;50.722;7.078;2023-04-02T13:18:29;4.30;;;3.90;;
11100;SDS011;5604;50.722;7.078;2023-04-02T13:20:59;4.50;;;4.10;;
11100;SDS011;5604;50.722;7.078;2023-04-02T13:23:30;5.43;;;4.27;;
11100;SDS011;5604;50.722;7.078;2023-04-02T13:26:08;3.90;;;3.50;;
11100;SDS011;5604;50.722;7.078;2023-04-02T13:28:43;4.57;;;3.60;;
11100;SDS011;5604;50.722;7.078;2023-04-02T13:31:24;4.20;;;3.53;;
11100;SDS011;5604;50.722;7.078;2023-04-02T13:33:52;3.47;;;3.17;;
11100;SDS011;5604;50.722;7.078;2023-04-02T13:36:20;3.60;;;3.30;;
11100;SDS011;5604;50.722;7.078;2023-04-02T13:38:51;3.80;;;3.20;;
11100;SDS011;5604;50.722;7.078;2023-04-02T13:41:21;4.03;;;3.60;;
11100;SDS011;5604;50.722;7.078;2023-04-02T13:44:00;4.53;;;3.20;;
11100;SDS011;5604;50.722;7.078;2023-04-02T13:46:32;3.57;;;3.27;;
11100;SDS011;5604;50.722;7.078;2023-04-02T13:49:07;3.67;;;3.33;;
11100;SDS011;5604;50.722;7.078;2023-04-02T13:51:38;4.00;;;3.37;;
11100;SDS011;5604;50.722;7.078;2023-04-02T13:54:11;3.80;;;3.50;;
11100;SDS011;5604;50.722;7.078;2023-04-02T13:56:49;3.90;;;3.60;;
11100;SDS011;5604;50.722;7.078;2023-04-02T13:59:21;5.93;;;4.33;;
11100;SDS011;5604;50.722;7.078;2023-04-02T14:01:52;5.40;;;4.50;;
11100;SDS011;5604;50.722;7.078;2023-04-02T14:04:26;3.93;;;3.63;;
11100;SDS011;5604;50.722;7.078;2023-04-02T14:09:58;3.90;;;3.60;;
11100;SDS011;5604;50.722;7.078;2023-04-02T14:12:34;4.23;;;3.50;;
11100;SDS011;5604;50.722;7.078;2023-04-02T14:15:14;4.83;;;3.53;;
11100;SDS011;5604;50.722;7.078;2023-04-02T14:17:54;3.77;;;3.40;;
11100;SDS011;5604;50.722;7.078;2023-04-02T14:20:34;4.43;;;3.03;;
11100;SDS011;5604;50.722;7.078;2023-04-02T14:23:12;3.97;;;3.57;;
11100;SDS011;5604;50.722;7.078;2023-04-02T14:25:56;3.83;;;3.50;;
11100;SDS011;5604;50.722;7.078;2023-04-02T14:28:34;3.67;;;3.13;;
11100;SDS011;5604;50.722;7.078;2023-04-02T14:31:13;4.03;;;3.10;;
11100;SDS011;5604;50.722;7.078;2023-04-02T14:33:48;3.47;;;3.17;;
11100;SDS011;5604;50.722;7.078;2023-04-02T14:36:21;3.67;;;3.30;;
11100;SDS011;5604;50.722;7.078;2023-04-02T14:39:04;5.53;;;3.53;;
11100;SDS011;5604;50.722;7.078;2023-04-02T14:41:41;5.37;;;3.27;;
11100;SDS011;5604;50.722;7.078;2023-04-02T14:44:17;5.03;;;3.60;;
11100;SDS011;5604;50.722;7.078;2023-04-02T14:46:58;3.13;;;2.90;;
11100;SDS011;5604;50.722;7.078;2023-04-02T14:49:37;6.17;;;3.50;;
11100;SDS011;5604;50.722;7.078;2023-04-02T14:52:12;3.43;;;3.07;;
11100;SDS011;5604;50.722;7.078;2023-04-02T14:54:45;3.93;;;3.20;;
11100;SDS011;5604;50.722;7.078;2023-04-02T14:57:20;3.30;;;3.00;;
11100;SDS011;5604;50.722;7.078;2023-04-02T15:00:03;3.90;;;2.90;;
11100;SDS011;5604;50.722;7.078;2023-04-02T15:02:39;3.30;;;2.83;;
11100;SDS011;5604;50.722;7.078;2023-04-02T15:05:17;4.83;;;3.10;;
11100;SDS011;5604;50.722;7.078;2023-04-02T15:07:51;3.37;;;2.60;;
11100;SDS011;5604;50.722;7.078;2023-04-02T15:10:31;4.70;;;2.57;;
11100;SDS011;5604;50.722;7.078;2023-04-02T15:13:10;2.90;;;2.67;;
11100;SDS011;5604;50.722;7.078;2023-04-02T15:15:47;4.73;;;2.47;;
11100;SDS011;5604;50.722;7.078;2023-04-02T15:18:33;2.60;;;2.40;;
11100;SDS011;5604;50.722;7.078;2023-04-02T15:21:27;3.30;;;3.00;;
11100;SDS011;5604;50.722;7.078;2023-04-02T15:24:29;3.43;;;2.60;;
11100;SDS011;5604;50.722;7.078;2023-04-02T15:27:15;3.00;;;2.70;;
11100;SDS011;5604;50.722;7.078;2023-04-02T15:30:02;3.57;;;2.27;;
11100;SDS011;5604;50.722;7.078;2023-04-02T15:32:39;2.67;;;2.47;;
11100;SDS011;5604;50.722;7.078;2023-04-02T15:35:17;2.40;;;2.20;;
11100;SDS011;5604;50.722;7.078;2023-04-02T15:37:57;5.87;;;2.60;;
11100;SDS011;5604;50.722;7.078;2023-04-02T15:40:43;2.43;;;2.00;;
11100;SDS011;5604;50.722;7.078;2023-04-02T15:43:27;2.83;;;2.00;;
11100;SDS011;5604;50.722;7.078;2023-04-02T15:46:04;2.70;;;2.10;;
11100;SDS011;5604;50.722;7.078;2023-04-02T15:48:51;8.20;;;2.27;;
11100;SDS011;5604;50.722;7.078;2023-04-02T15:51:35;3.63;;;2.13;;
11100;SDS011;5604;50.722;7.078;2023-04-02T15:54:18;2.17;;;1.97;;
11100;SDS011;5604;50.722;7.078;2023-04-02T15:57:02;2.23;;;2.03;;
11100;SDS011;5604;50.722;7.078;2023-04-02T16:02:50;2.77;;;1.80;;
11100;SDS011;5604;50.722;7.078;2023-04-02T16:05:40;2.60;;;2.20;;
11100;SDS011;5604;50.722;7.078;2023-04-02T16:08:18;2.60;;;2.00;;
11100;SDS011;5604;50.722;7.078;2023-04-02T16:11:04;2.30;;;2.00;;